createdAt,value
2022-09-24T00:01:42.928Z,1.02
2022-09-24T00:04:12.868Z,1.75
2022-09-24T00:06:44.346Z,1.98
2022-09-24T00:09:12.823Z,3.08
2022-09-24T00:11:41.040Z,1.83
2022-09-24T00:14:10.733Z,1.55
2022-09-24T00:16:40.479Z,2.22
2022-09-24T00:19:08.441Z,1.70
2022-09-24T00:21:37.992Z,1.45
2022-09-24T00:24:08.753Z,1.08
2022-09-24T00:26:51.390Z,2.85
2022-09-24T00:29:24.054Z,1.83
2022-09-24T00:31:53.599Z,1.15
2022-09-24T00:34:22.520Z,1.85
2022-09-24T00:36:50.372Z,1.15
2022-09-24T00:39:18.264Z,1.20
2022-09-24T00:41:48.954Z,2.25
2022-09-24T00:44:56.421Z,1.08
2022-09-24T00:47:36.941Z,2.50
2022-09-24T00:50:15.630Z,2.28
2022-09-24T00:52:46.498Z,1.52
2022-09-24T00:55:16.645Z,1.30
2022-09-24T00:57:46.067Z,1.00
2022-09-24T01:00:16.132Z,1.00
2022-09-24T01:02:47.700Z,1.60
2022-09-24T01:05:15.734Z,0.98
2022-09-24T01:07:43.608Z,2.38
2022-09-24T01:10:12.013Z,1.17
2022-09-24T01:12:46.916Z,1.60
2022-09-24T01:15:25.218Z,1.38
2022-09-24T01:18:02.866Z,1.83
2022-09-24T01:21:00.935Z,0.88
2022-09-24T01:23:48.769Z,5.30
2022-09-24T01:26:34.248Z,1.13
2022-09-24T01:29:25.828Z,1.45
2022-09-24T01:32:02.507Z,2.45
2022-09-24T01:34:41.778Z,1.30
2022-09-24T01:37:10.247Z,1.00
2022-09-24T01:39:40.031Z,1.02
2022-09-24T01:42:10.945Z,1.48
2022-09-24T01:44:42.078Z,1.10
2022-09-24T01:47:14.259Z,1.73
2022-09-24T01:49:42.218Z,1.55
2022-09-24T01:52:15.981Z,0.98
2022-09-24T01:54:50.813Z,1.23
2022-09-24T01:57:23.886Z,1.42
2022-09-24T01:59:57.624Z,1.10
2022-09-24T02:02:34.495Z,1.67
2022-09-24T02:05:06.519Z,1.48
2022-09-24T02:07:39.724Z,1.33
2022-09-24T02:10:15.828Z,1.75
2022-09-24T02:12:47.752Z,1.95
2022-09-24T02:15:20.734Z,1.40
2022-09-24T02:17:55.666Z,2.95
2022-09-24T02:22:53.359Z,2.10
2022-09-24T02:25:26.576Z,1.50
2022-09-24T02:27:54.622Z,1.05
2022-09-24T02:30:22.577Z,1.65
2022-09-24T02:32:54.615Z,1.90
2022-09-24T02:35:22.449Z,2.13
2022-09-24T02:37:50.292Z,1.70
2022-09-24T02:40:18.245Z,1.60
2022-09-24T02:42:46.134Z,1.50
2022-09-24T02:45:14.567Z,1.35
2022-09-24T02:47:42.427Z,1.38
2022-09-24T02:50:11.943Z,1.70
2022-09-24T02:52:39.794Z,1.48
2022-09-24T02:55:08.129Z,2.28
2022-09-24T02:57:36.920Z,1.77
2022-09-24T03:00:06.192Z,4.15
2022-09-24T03:02:35.418Z,1.33
2022-09-24T03:05:03.394Z,2.80
2022-09-24T03:07:32.655Z,1.20
2022-09-24T03:10:00.530Z,1.27
2022-09-24T03:12:28.462Z,1.38
2022-09-24T03:14:56.377Z,1.90
2022-09-24T03:17:24.275Z,3.72
2022-09-24T03:19:52.188Z,1.25
2022-09-24T03:22:20.066Z,1.67
2022-09-24T03:24:49.316Z,2.67
2022-09-24T03:27:17.233Z,1.33
2022-09-24T03:30:04.744Z,1.77
2022-09-24T03:32:33.763Z,1.60
2022-09-24T03:35:01.645Z,1.20
2022-09-24T03:37:29.524Z,1.95
2022-09-24T03:39:58.738Z,2.63
2022-09-24T03:42:26.570Z,1.60
2022-09-24T03:44:54.504Z,1.63
2022-09-24T03:47:22.355Z,1.50
2022-09-24T03:49:50.236Z,1.30
2022-09-24T03:52:18.180Z,1.88
2022-09-24T03:54:46.129Z,1.30
2022-09-24T03:57:15.682Z,1.52
2022-09-24T03:59:44.111Z,2.00
2022-09-24T04:02:12.905Z,1.73
2022-09-24T04:04:41.203Z,1.48
2022-09-24T04:07:09.091Z,1.67
2022-09-24T04:09:37.082Z,1.80
2022-09-24T04:12:06.293Z,1.88
2022-09-24T04:14:35.590Z,1.80
2022-09-24T04:17:03.700Z,1.25
2022-09-24T04:19:32.072Z,1.40
2022-09-24T04:21:59.947Z,2.17
2022-09-24T04:24:27.967Z,1.38
2022-09-24T04:26:55.863Z,1.52
2022-09-24T04:29:23.792Z,1.70
2022-09-24T04:31:53.154Z,1.70
2022-09-24T04:34:21.257Z,1.25
2022-09-24T04:36:49.124Z,1.60
2022-09-24T04:39:17.015Z,1.35
2022-09-24T04:41:47.102Z,1.52
2022-09-24T04:44:15.294Z,1.25
2022-09-24T04:46:43.295Z,1.70
2022-09-24T04:49:12.816Z,2.58
2022-09-24T04:51:40.743Z,2.00
2022-09-24T04:54:09.372Z,1.40
2022-09-24T04:56:37.227Z,4.45
2022-09-24T04:59:05.276Z,2.00
2022-09-24T05:01:33.609Z,1.30
2022-09-24T05:04:01.957Z,1.50
2022-09-24T05:06:31.179Z,1.65
2022-09-24T05:08:59.164Z,2.03
2022-09-24T05:11:27.061Z,1.55
2022-09-24T05:13:54.940Z,1.67
2022-09-24T05:16:23.253Z,1.52
2022-09-24T05:18:51.182Z,1.52
2022-09-24T05:21:19.072Z,2.05
2022-09-24T05:23:48.347Z,1.98
2022-09-24T05:26:33.527Z,1.48
2022-09-24T05:29:01.692Z,1.35
2022-09-24T05:31:29.635Z,1.40
2022-09-24T05:33:57.741Z,2.05
2022-09-24T05:36:26.899Z,3.17
2022-09-24T05:38:56.263Z,1.40
2022-09-24T05:41:24.149Z,1.95
2022-09-24T05:43:52.095Z,2.35
2022-09-24T05:46:20.040Z,1.92
2022-09-24T05:48:47.927Z,2.33
2022-09-24T05:51:15.984Z,2.08
2022-09-24T05:53:44.212Z,1.70
2022-09-24T05:56:13.489Z,2.08
2022-09-24T05:58:41.392Z,2.17
2022-09-24T06:01:09.412Z,1.65
2022-09-24T06:03:37.409Z,1.67
2022-09-24T06:06:05.370Z,2.95
2022-09-24T06:08:33.995Z,2.03
2022-09-24T06:11:05.214Z,1.50
2022-09-24T06:13:34.999Z,1.60
2022-09-24T06:16:03.661Z,1.27
2022-09-24T06:18:31.630Z,1.73
2022-09-24T06:21:02.675Z,1.30
2022-09-24T06:23:30.956Z,1.25
2022-09-24T06:25:58.886Z,1.42
2022-09-24T06:28:26.767Z,1.58
2022-09-24T06:30:56.182Z,2.30
2022-09-24T06:33:24.359Z,2.42
2022-09-24T06:35:52.197Z,2.13
2022-09-24T06:38:20.729Z,3.25
2022-09-24T06:40:49.331Z,1.65
2022-09-24T06:43:18.787Z,1.70
2022-09-24T06:45:46.713Z,1.48
2022-09-24T06:48:16.127Z,1.70
2022-09-24T06:50:47.282Z,1.65
2022-09-24T06:53:15.923Z,2.15
2022-09-24T06:55:43.814Z,2.38
2022-09-24T06:58:13.893Z,3.78
2022-09-24T07:00:42.923Z,1.85
2022-09-24T07:03:17.259Z,1.77
2022-09-24T07:05:45.331Z,2.20
2022-09-24T07:08:13.594Z,1.88
2022-09-24T07:10:44.074Z,3.00
2022-09-24T07:13:13.145Z,2.20
2022-09-24T07:15:41.204Z,2.50
2022-09-24T07:18:09.212Z,2.00
2022-09-24T07:20:38.479Z,2.25
2022-09-24T07:23:07.140Z,2.42
2022-09-24T07:25:35.629Z,1.50
2022-09-24T07:28:05.037Z,2.42
2022-09-24T07:30:33.491Z,1.85
2022-09-24T07:33:01.441Z,4.72
2022-09-24T07:35:30.253Z,1.67
2022-09-24T07:38:01.193Z,1.45
2022-09-24T07:40:30.239Z,1.60
2022-09-24T07:42:58.528Z,1.55
2022-09-24T07:45:29.419Z,1.25
2022-09-24T07:48:01.703Z,3.83
2022-09-24T07:50:31.659Z,1.50
2022-09-24T07:53:01.518Z,1.85
2022-09-24T07:55:29.416Z,3.63
2022-09-24T07:57:57.501Z,1.80
2022-09-24T08:00:26.323Z,3.35
2022-09-24T08:02:56.292Z,3.08
2022-09-24T08:05:24.216Z,2.78
2022-09-24T08:07:53.297Z,2.20
2022-09-24T08:10:23.190Z,1.85
2022-09-24T08:12:51.413Z,4.93
2022-09-24T08:15:19.666Z,3.05
2022-09-24T08:17:47.776Z,1.58
2022-09-24T08:20:15.766Z,1.45
2022-09-24T08:22:43.635Z,4.55
2022-09-24T08:25:11.554Z,3.25
2022-09-24T08:27:40.825Z,1.83
2022-09-24T08:30:09.896Z,1.77
2022-09-24T08:32:37.762Z,1.60
2022-09-24T08:35:08.199Z,2.03
2022-09-24T08:37:37.113Z,4.82
2022-09-24T08:40:05.473Z,6.47
2022-09-24T08:42:43.833Z,16.95
2022-09-24T08:45:30.418Z,21.33
2022-09-24T08:48:02.006Z,14.13
2022-09-24T08:50:32.370Z,12.43
2022-09-24T08:53:14.083Z,7.97
2022-09-24T08:55:47.353Z,7.38
2022-09-24T08:58:33.529Z,9.30
2022-09-24T09:01:13.340Z,11.63
2022-09-24T09:03:47.742Z,8.07
2022-09-24T09:06:32.215Z,8.02
2022-09-24T09:09:16.292Z,11.17
2022-09-24T09:11:49.878Z,13.05
2022-09-24T09:14:20.556Z,9.93
2022-09-24T09:16:53.226Z,12.32
2022-09-24T09:19:27.523Z,4.45
2022-09-24T09:21:58.337Z,8.55
2022-09-24T09:24:32.604Z,3.63
2022-09-24T09:27:01.074Z,4.93
2022-09-24T09:29:30.754Z,6.72
2022-09-24T09:32:10.944Z,4.38
2022-09-24T09:34:52.828Z,6.60
2022-09-24T09:37:29.516Z,2.70
2022-09-24T09:40:09.890Z,6.95
2022-09-24T09:42:40.405Z,5.70
2022-09-24T09:45:28.054Z,4.68
2022-09-24T09:47:58.566Z,2.63
2022-09-24T09:50:29.391Z,4.20
2022-09-24T09:52:57.589Z,2.88
2022-09-24T09:55:27.382Z,4.47
2022-09-24T09:58:09.158Z,5.10
2022-09-24T10:00:37.963Z,4.10
2022-09-24T10:03:07.471Z,5.63
2022-09-24T10:05:36.210Z,6.03
2022-09-24T10:08:04.111Z,7.65
2022-09-24T10:10:32.004Z,4.07
2022-09-24T10:13:10.174Z,2.90
2022-09-24T10:15:49.373Z,4.55
2022-09-24T10:18:28.323Z,8.25
2022-09-24T10:20:57.800Z,5.93
2022-09-24T10:23:34.645Z,8.38
2022-09-24T10:26:04.091Z,5.53
2022-09-24T10:28:51.258Z,3.33
2022-09-24T10:31:22.411Z,5.93
2022-09-24T10:33:55.879Z,8.30
2022-09-24T10:36:25.465Z,4.07
2022-09-24T10:39:03.956Z,3.05
2022-09-24T10:41:33.042Z,9.52
2022-09-24T10:44:05.291Z,7.05
2022-09-24T10:46:48.920Z,2.95
2022-09-24T10:49:30.066Z,5.95
2022-09-24T10:52:04.997Z,5.00
2022-09-24T10:57:19.952Z,3.23
2022-09-24T10:59:54.958Z,3.00
2022-09-24T11:05:05.374Z,6.95
2022-09-24T11:08:00.301Z,3.53
2022-09-24T11:10:51.331Z,3.33
2022-09-24T11:13:28.703Z,4.65
2022-09-24T11:16:25.841Z,5.45
2022-09-24T11:19:01.265Z,4.47
2022-09-24T11:21:40.970Z,9.15
2022-09-24T11:24:38.351Z,5.00
2022-09-24T11:27:28.331Z,5.93
2022-09-24T11:30:08.453Z,10.40
2022-09-24T11:32:54.257Z,4.20
2022-09-24T11:35:35.495Z,4.78
2022-09-24T11:38:11.250Z,6.70
2022-09-24T11:40:54.316Z,7.68
2022-09-24T11:43:46.017Z,2.90
2022-09-24T11:46:25.482Z,3.17
2022-09-24T11:49:12.049Z,2.53
2022-09-24T11:51:51.959Z,9.93
2022-09-24T11:54:27.918Z,6.50
2022-09-24T11:57:02.996Z,9.40
2022-09-24T11:59:37.990Z,7.57
2022-09-24T12:04:54.183Z,5.78
2022-09-24T12:07:27.689Z,5.10
2022-09-24T12:10:00.908Z,4.85
2022-09-24T12:12:33.804Z,12.60
2022-09-24T12:15:06.968Z,7.13
2022-09-24T12:17:41.756Z,9.13
2022-09-24T12:20:19.474Z,9.95
2022-09-24T12:22:49.915Z,7.25
2022-09-24T12:25:19.233Z,8.73
2022-09-24T12:27:48.389Z,11.75
2022-09-24T12:30:53.434Z,5.75
2022-09-24T12:33:27.849Z,9.63
2022-09-24T12:36:06.574Z,14.65
2022-09-24T12:38:38.139Z,7.90
2022-09-24T12:41:28.658Z,8.90
2022-09-24T12:44:03.048Z,9.73
2022-09-24T12:46:34.245Z,5.18
2022-09-24T12:49:02.873Z,8.32
2022-09-24T12:51:39.316Z,17.02
2022-09-24T12:54:10.238Z,26.15
2022-09-24T12:56:40.989Z,18.95
2022-09-24T12:59:26.420Z,15.85
2022-09-24T13:04:30.156Z,23.55
2022-09-24T13:06:58.138Z,32.63
2022-09-24T13:09:35.430Z,27.23
2022-09-24T13:12:21.828Z,27.50
2022-09-24T13:14:56.358Z,39.40
2022-09-24T13:17:24.873Z,24.83
2022-09-24T13:19:58.984Z,32.92
2022-09-24T13:22:29.886Z,22.83
2022-09-24T13:25:20.986Z,21.10
2022-09-24T13:28:00.126Z,26.58
2022-09-24T13:30:39.021Z,20.45
2022-09-24T13:33:21.287Z,25.77
2022-09-24T13:36:03.194Z,25.40
2022-09-24T13:38:34.856Z,23.40
2022-09-24T13:41:14.132Z,22.77
2022-09-24T13:43:49.557Z,27.40
2022-09-24T13:46:19.826Z,30.75
2022-09-24T13:48:53.042Z,31.02
2022-09-24T13:51:26.409Z,25.08
2022-09-24T13:53:58.967Z,27.30
2022-09-24T13:56:27.154Z,22.83
2022-09-24T13:59:06.154Z,27.15
2022-09-24T14:01:41.006Z,27.08
2022-09-24T14:04:17.676Z,24.13
2022-09-24T14:06:50.692Z,26.88
2022-09-24T14:09:28.118Z,32.75
2022-09-24T14:11:58.214Z,30.20
2022-09-24T14:14:29.562Z,29.63
2022-09-24T14:17:07.916Z,24.48
2022-09-24T14:19:36.167Z,28.13
2022-09-24T14:22:06.418Z,30.60
2022-09-24T14:24:36.494Z,29.20
2022-09-24T14:27:08.637Z,31.75
2022-09-24T14:29:48.188Z,25.08
2022-09-24T14:32:24.040Z,23.05
2022-09-24T14:34:55.462Z,32.83
2022-09-24T14:37:27.312Z,25.30
2022-09-24T14:40:02.632Z,29.00
2022-09-24T14:42:39.738Z,25.60
2022-09-24T14:45:11.540Z,27.80
2022-09-24T14:47:39.528Z,22.38
2022-09-24T14:50:27.618Z,23.63
2022-09-24T14:52:57.859Z,25.58
2022-09-24T14:55:38.366Z,29.80
2022-09-24T14:58:06.439Z,22.02
2022-09-24T15:00:47.605Z,32.08
2022-09-24T15:03:20.619Z,26.80
2022-09-24T15:05:48.840Z,30.35
2022-09-24T15:08:28.453Z,22.55
2022-09-24T15:10:58.783Z,22.55
2022-09-24T15:13:30.576Z,28.17
2022-09-24T15:16:17.383Z,18.90
2022-09-24T15:18:56.332Z,22.25
2022-09-24T15:21:24.315Z,27.23
2022-09-24T15:23:52.260Z,24.77
2022-09-24T15:26:20.696Z,22.05
2022-09-24T15:28:48.976Z,30.15
2022-09-24T15:31:18.332Z,17.42
2022-09-24T15:33:46.306Z,22.00
2022-09-24T15:36:15.060Z,22.60
2022-09-24T15:38:42.988Z,20.60
2022-09-24T15:41:10.883Z,17.88
2022-09-24T15:43:38.779Z,17.48
2022-09-24T15:46:06.934Z,24.50
2022-09-24T15:48:36.229Z,24.27
2022-09-24T15:51:10.141Z,19.15
2022-09-24T15:53:39.804Z,24.35
2022-09-24T15:56:08.062Z,20.90
2022-09-24T15:58:35.985Z,18.38
2022-09-24T16:01:03.872Z,20.58
2022-09-24T16:03:33.317Z,22.65
2022-09-24T16:06:03.340Z,16.08
2022-09-24T16:08:31.243Z,18.52
2022-09-24T16:10:59.119Z,17.63
2022-09-24T16:13:27.016Z,20.02
2022-09-24T16:15:54.950Z,18.17
2022-09-24T16:18:25.960Z,21.17
2022-09-24T16:20:54.020Z,17.30
2022-09-24T16:23:23.319Z,15.18
2022-09-24T16:26:01.292Z,16.30
2022-09-24T16:28:29.981Z,19.50
2022-09-24T16:30:58.539Z,18.75
2022-09-24T16:33:27.307Z,18.15
2022-09-24T16:35:55.161Z,21.48
2022-09-24T16:38:24.457Z,13.65
2022-09-24T16:41:00.827Z,13.00
2022-09-24T16:43:29.106Z,19.15
2022-09-24T16:46:01.886Z,15.90
2022-09-24T16:48:29.956Z,15.82
2022-09-24T16:51:04.274Z,14.45
2022-09-24T16:53:34.709Z,16.98
2022-09-24T16:56:07.747Z,17.45
2022-09-24T16:58:35.851Z,16.65
2022-09-24T17:01:06.046Z,17.25
2022-09-24T17:03:34.138Z,11.65
2022-09-24T17:06:02.534Z,14.57
2022-09-24T17:08:47.935Z,16.58
2022-09-24T17:13:43.851Z,13.55
2022-09-24T17:16:11.913Z,12.70
2022-09-24T17:18:40.298Z,16.67
2022-09-24T17:21:11.122Z,14.88
2022-09-24T17:23:40.818Z,15.57
2022-09-24T17:26:11.480Z,11.05
2022-09-24T17:28:41.024Z,15.73
2022-09-24T17:31:09.940Z,13.93
2022-09-24T17:33:43.229Z,12.48
2022-09-24T17:36:14.083Z,14.05
2022-09-24T17:38:43.910Z,13.23
2022-09-24T17:41:13.830Z,13.32
2022-09-24T17:43:42.931Z,12.18
2022-09-24T17:46:14.572Z,18.92
2022-09-24T17:48:44.382Z,15.10
2022-09-24T17:51:14.244Z,12.50
2022-09-24T17:53:44.310Z,15.15
2022-09-24T17:56:13.302Z,9.50
2022-09-24T17:58:43.156Z,12.70
2022-09-24T18:01:13.304Z,11.68
2022-09-24T18:03:42.124Z,12.57
2022-09-24T18:06:12.089Z,14.43
2022-09-24T18:08:41.144Z,10.88
2022-09-24T18:11:13.518Z,14.60
2022-09-24T18:13:42.235Z,9.55
2022-09-24T18:16:12.440Z,9.48
2022-09-24T18:18:41.340Z,16.10
2022-09-24T18:21:10.933Z,12.57
2022-09-24T18:23:38.919Z,9.77
2022-09-24T18:26:13.786Z,14.95
2022-09-24T18:28:42.892Z,11.52
2022-09-24T18:31:11.587Z,8.25
2022-09-24T18:33:41.423Z,10.80
2022-09-24T18:36:11.863Z,10.65
2022-09-24T18:38:40.046Z,11.98
2022-09-24T18:41:10.242Z,12.05
2022-09-24T18:43:39.864Z,11.40
2022-09-24T18:46:09.869Z,12.05
2022-09-24T18:48:38.230Z,7.50
2022-09-24T18:51:06.883Z,11.18
2022-09-24T18:53:35.308Z,13.95
2022-09-24T18:56:06.589Z,9.73
2022-09-24T18:58:35.052Z,7.65
2022-09-24T19:01:07.797Z,8.40
2022-09-24T19:03:36.325Z,10.23
2022-09-24T19:06:06.776Z,8.80
2022-09-24T19:08:36.342Z,10.32
2022-09-24T19:11:07.725Z,10.10
2022-09-24T19:13:36.842Z,7.22
2022-09-24T19:16:08.203Z,7.60
2022-09-24T19:18:36.615Z,7.47
2022-09-24T19:21:06.557Z,7.28
2022-09-24T19:23:37.486Z,9.90
2022-09-24T19:26:05.974Z,7.63
2022-09-24T19:28:34.639Z,10.48
2022-09-24T19:31:02.951Z,8.57
2022-09-24T19:33:32.277Z,10.38
2022-09-24T19:36:03.683Z,8.68
2022-09-24T19:38:33.193Z,10.07
2022-09-24T19:41:02.106Z,7.15
2022-09-24T19:43:33.178Z,7.22
2022-09-24T19:46:02.823Z,7.40
2022-09-24T19:48:33.928Z,8.85
2022-09-24T19:51:03.608Z,7.22
2022-09-24T19:53:32.082Z,9.52
2022-09-24T19:56:00.074Z,7.55
2022-09-24T19:58:28.504Z,7.20
2022-09-24T20:01:00.844Z,8.70
2022-09-24T20:03:28.750Z,6.88
2022-09-24T20:05:57.977Z,6.78
2022-09-24T20:08:26.342Z,7.88
2022-09-24T20:10:54.201Z,8.40
2022-09-24T20:13:22.429Z,5.82
2022-09-24T20:15:59.122Z,8.52
2022-09-24T20:18:27.240Z,7.00
2022-09-24T20:20:55.381Z,7.30
2022-09-24T20:23:24.984Z,7.00
2022-09-24T20:26:10.962Z,10.18
2022-09-24T20:28:39.526Z,5.82
2022-09-24T20:31:10.918Z,8.45
2022-09-24T20:33:41.037Z,7.55
2022-09-24T20:36:15.426Z,5.18
2022-09-24T20:38:48.229Z,7.85
2022-09-24T20:41:17.925Z,7.97
2022-09-24T20:43:46.708Z,7.70
2022-09-24T20:46:17.669Z,5.28
2022-09-24T20:48:45.972Z,6.88
2022-09-24T20:51:15.973Z,6.22
2022-09-24T20:53:43.852Z,4.45
2022-09-24T20:56:13.661Z,7.55
2022-09-24T20:58:42.398Z,6.82
2022-09-24T21:01:11.203Z,4.60
2022-09-24T21:03:45.533Z,4.90
2022-09-24T21:06:14.939Z,6.80
2022-09-24T21:08:44.464Z,5.65
2022-09-24T21:11:16.315Z,6.45
2022-09-24T21:13:46.012Z,5.25
2022-09-24T21:16:14.024Z,5.40
2022-09-24T21:18:44.983Z,6.95
2022-09-24T21:21:16.025Z,5.63
2022-09-24T21:23:44.622Z,6.88
2022-09-24T21:26:16.691Z,6.30
2022-09-24T21:28:45.199Z,5.00
2022-09-24T21:31:13.852Z,4.60
2022-09-24T21:33:46.319Z,6.32
2022-09-24T21:36:18.518Z,5.00
2022-09-24T21:38:47.068Z,6.13
2022-09-24T21:41:16.294Z,7.13
2022-09-24T21:43:44.248Z,2.70
2022-09-24T21:46:13.745Z,4.68
2022-09-24T21:48:41.766Z,5.60
2022-09-24T21:51:13.577Z,4.95
2022-09-24T21:53:41.923Z,3.63
2022-09-24T21:56:09.786Z,6.57
2022-09-24T21:58:39.081Z,3.92
2022-09-24T22:01:14.064Z,4.65
2022-09-24T22:06:09.971Z,3.85
2022-09-24T22:08:38.038Z,6.43
2022-09-24T22:11:08.062Z,4.45
2022-09-24T22:13:38.269Z,5.85
2022-09-24T22:16:07.302Z,3.20
2022-09-24T22:18:35.639Z,4.57
2022-09-24T22:21:07.705Z,4.40
2022-09-24T22:23:35.715Z,5.35
2022-09-24T22:26:03.991Z,4.53
2022-09-24T22:28:31.955Z,8.98
2022-09-24T22:31:04.916Z,9.45
2022-09-24T22:33:50.731Z,7.38
2022-09-24T22:36:19.334Z,4.53
2022-09-24T22:38:48.635Z,6.63
2022-09-24T22:41:16.555Z,10.15
2022-09-24T22:43:44.507Z,4.00
2022-09-24T22:46:16.346Z,4.90
2022-09-24T22:48:44.707Z,3.83
2022-09-24T22:51:12.589Z,10.50
2022-09-24T22:53:42.638Z,7.13
2022-09-24T22:56:12.864Z,9.77
2022-09-24T22:58:43.274Z,3.90
2022-09-24T23:01:15.137Z,5.85
2022-09-24T23:03:44.133Z,6.63
2022-09-24T23:06:12.737Z,5.15
2022-09-24T23:08:42.659Z,4.65
2022-09-24T23:11:13.422Z,5.68
2022-09-24T23:13:42.937Z,6.10
2022-09-24T23:16:14.057Z,4.47
2022-09-24T23:18:44.132Z,3.47
2022-09-24T23:21:14.168Z,3.42
2022-09-24T23:23:42.144Z,3.08
2022-09-24T23:26:16.625Z,10.57
2022-09-24T23:28:45.630Z,5.88
2022-09-24T23:31:16.125Z,5.00
2022-09-24T23:33:44.274Z,4.10
2022-09-24T23:36:13.691Z,5.15
2022-09-24T23:38:42.794Z,5.10
2022-09-24T23:41:11.736Z,6.35
2022-09-24T23:43:39.658Z,4.85
2022-09-24T23:46:08.074Z,6.25
2022-09-24T23:48:38.068Z,5.95
2022-09-24T23:51:06.649Z,12.32
2022-09-24T23:53:35.178Z,3.90
2022-09-24T23:56:04.239Z,3.03
2022-09-24T23:58:32.377Z,4.30
